This is the latest recevied weather packets stored in our database for station/object JE9BHE-13. If no packets are shown the sender has not sent any weather packets the latest 10 day(s).
| Time | Temp. | Humidity | Pressure | Rain* | Wind** | Luminosity | Snow |
|---|---|---|---|---|---|---|---|
| 1778191929 | 21.67° C | 66% | 1009.8 hPa | 0 mm | - | - | - |
| 1778189767 | 20.56° C | 70% | 1009.8 hPa | 0 mm | - | - | - |
| 1778188148 | 20.56° C | 70% | 1009.9 hPa | 0 mm | - | - | - |
| 1778187967 | 20° C | 71% | 1009.9 hPa | 0 mm | - | - | - |
| 1778186347 | 18.89° C | 76% | 1009.8 hPa | 0 mm | - | - | - |
| 1778182927 | 18.33° C | 76% | 1010 hPa | 0 mm | - | - | - |
| 1778182388 | 16.11° C | 83% | 1010.2 hPa | 0 mm | - | - | - |
| 1778181307 | 16.67° C | 82% | 1009.9 hPa | 0 mm | - | - | - |
| 1778180227 | 18.89° C | 75% | 1009.8 hPa | 0 mm | - | - | - |
| 1778178248 | 15° C | 89% | 1010.5 hPa | 0 mm | - | - | - |
| 1778175187 | 14.44° C | 88% | 1010.4 hPa | 0 mm | - | - | - |
| 1778174467 | 15° C | 88% | 1010.3 hPa | 0 mm | - | - | - |
| 1778173747 | 15° C | 86% | 1010.7 hPa | 0 mm | - | - | - |
| 1778173027 | 15° C | 86% | 1010.7 hPa | 0 mm | - | - | - |
| 1778172847 | 15.56° C | 86% | 1010.8 hPa | 0 mm | - | - | - |
| 1778171227 | 15.56° C | 84% | 1011.5 hPa | 0 mm | - | - | - |
| 1778171047 | 15.56° C | 84% | 1011.5 hPa | 0 mm | - | - | - |
| 1778170507 | 15.56° C | 82% | 1011.4 hPa | 0 mm | - | - | - |
| 1778168347 | 16.67° C | 76% | 1011.8 hPa | 0 mm | - | - | - |
| 1778166187 | 16.67° C | 77% | 1012.2 hPa | 0 mm | - | - | - |
| 1778164927 | 15.56° C | 83% | 1012.4 hPa | 0 mm | - | - | - |
| 1778164027 | 15.56° C | 85% | 1012.6 hPa | 0 mm | - | - | - |
| 1778161508 | 18.89° C | 68% | 1012.6 hPa | 0 mm | - | - | - |
| 1778160967 | 18.33° C | 68% | 1012.4 hPa | 0 mm | - | - | - |
| 1778160428 | 17.78° C | 72% | 1012.5 hPa | 0 mm | - | - | - |
* Rain latest hour (hover to see other rain measurements)
** Current wind speed in m/s (hover to see current wind gust speed)